Time;durP1;ratioP1;P1;durP2;ratioP2;P2;SDS_P1;SDS_P2;PMS_P1;PMS_P2;Temp;Humidity;BMP_temperature;BMP_pressure;BME280_temperature;BME280_humidity;BME280_pressure;Samples;Min_cycle;Max_cycle;Signal;HPM_P1;HPM_P2
2023/07/22 00:02:15;;;;;;;3.40;2.55;;;;;;;18.41;100.00;99082.59;5054477;28;20103;-83
2023/07/22 00:04:41;;;;;;;4.22;2.80;;;;;;;18.26;100.00;99065.50;5054093;28;20028;-83
2023/07/22 00:07:06;;;;;;;3.80;3.22;;;;;;;18.42;100.00;99095.66;5054751;28;20021;-83
2023/07/22 00:09:34;;;;;;;4.18;3.05;;;;;;;18.32;100.00;99089.50;5036549;28;20029;-83
2023/07/22 00:12:00;;;;;;;4.13;2.97;;;;;;;18.45;100.00;99105.09;5053587;28;20079;-83
2023/07/22 00:14:25;;;;;;;3.20;2.90;;;;;;;18.41;100.00;99104.53;5054299;28;20443;-83
2023/07/22 00:16:51;;;;;;;3.13;2.78;;;;;;;18.33;100.00;99096.47;5035964;28;20060;-83
2023/07/22 00:19:16;;;;;;;3.35;3.10;;;;;;;18.40;100.00;99099.38;5053963;28;20048;-83
2023/07/22 00:21:41;;;;;;;2.97;2.72;;;;;;;18.35;100.00;99106.88;5054081;28;20029;-83
2023/07/22 00:24:07;;;;;;;3.03;2.83;;;;;;;18.17;100.00;99082.97;5054283;28;20021;-83
2023/07/22 00:26:33;;;;;;;4.53;3.15;;;;;;;18.23;100.00;99084.22;5036201;28;20029;-83
2023/07/22 00:28:58;;;;;;;3.60;3.30;;;;;;;18.16;100.00;99081.25;5053757;28;20032;-83
2023/07/22 00:31:23;;;;;;;3.33;3.03;;;;;;;18.04;100.00;99079.72;5054265;28;20029;-83
2023/07/22 00:33:49;;;;;;;4.25;3.50;;;;;;;18.06;100.00;99106.75;5053606;28;20021;-83
2023/07/22 00:36:14;;;;;;;3.50;2.90;;;;;;;18.16;100.00;99123.44;5053938;28;20032;-83
2023/07/22 00:38:39;;;;;;;3.55;3.08;;;;;;;18.06;100.00;99109.41;5053642;28;20028;-83
2023/07/22 00:41:05;;;;;;;3.30;3.00;;;;;;;18.01;100.00;99115.06;5053675;28;20033;-83
2023/07/22 00:43:31;;;;;;;9.65;3.25;;;;;;;17.92;100.00;99095.63;5053806;28;20021;-83
2023/07/22 00:45:56;;;;;;;4.55;3.15;;;;;;;17.92;100.00;99100.88;5053410;28;20071;-83
2023/07/22 00:48:22;;;;;;;3.83;3.03;;;;;;;17.90;100.00;99118.59;5053496;28;20059;-83
2023/07/22 00:50:47;;;;;;;4.55;3.70;;;;;;;17.81;100.00;99102.75;5053303;28;20488;-83
2023/07/22 00:53:13;;;;;;;3.75;3.20;;;;;;;17.79;100.00;99104.69;5053713;28;20431;-82
2023/07/22 00:55:42;;;;;;;3.50;3.20;;;;;;;17.61;100.00;99072.81;5053320;28;20032;-83
2023/07/22 00:58:08;;;;;;;3.70;3.40;;;;;;;17.63;100.00;99082.25;5053351;28;20472;-83
2023/07/22 01:00:33;;;;;;;5.20;3.38;;;;;;;17.78;100.00;99116.19;5053363;28;20048;-83
2023/07/22 01:02:59;;;;;;;3.47;3.17;;;;;;;17.64;100.00;99096.25;5053009;28;20073;-83
2023/07/22 01:05:27;;;;;;;3.47;3.17;;;;;;;17.56;100.00;99096.06;5053245;28;20487;-83
2023/07/22 01:07:53;;;;;;;4.63;3.53;;;;;;;17.48;100.00;99101.13;5053185;28;20032;-83
2023/07/22 01:10:18;;;;;;;3.55;3.15;;;;;;;17.42;100.00;99089.34;5053307;28;20025;-83
2023/07/22 01:12:44;;;;;;;4.32;3.50;;;;;;;17.50;100.00;99109.75;5052973;28;20350;-83
2023/07/22 01:15:10;;;;;;;4.45;3.70;;;;;;;17.50;100.00;99115.84;5053113;28;20033;-83
2023/07/22 01:17:38;;;;;;;3.95;3.10;;;;;;;17.39;100.00;99100.13;5053137;28;20077;-83
2023/07/22 01:20:05;;;;;;;3.92;3.53;;;;;;;17.42;100.00;99107.75;5035046;28;20025;-83
2023/07/22 01:22:32;;;;;;;3.95;3.47;;;;;;;17.38;100.00;99107.19;5053282;28;20025;-83
2023/07/22 01:24:58;;;;;;;3.60;3.30;;;;;;;17.21;100.00;99082.25;5051925;28;20028;-83
2023/07/22 01:27:24;;;;;;;4.50;3.20;;;;;;;17.25;100.00;99096.00;5053055;28;20047;-83
2023/07/22 01:29:52;;;;;;;3.60;3.30;;;;;;;17.29;100.00;99105.31;5052424;28;20021;-83
2023/07/22 01:32:18;;;;;;;3.40;3.10;;;;;;;17.33;100.00;99116.44;5034765;28;20059;-83
2023/07/22 01:34:43;;;;;;;4.43;3.50;;;;;;;17.17;100.00;99094.00;5052570;28;20024;-83
2023/07/22 01:37:09;;;;;;;3.70;3.25;;;;;;;17.18;100.00;99110.63;5052767;28;20035;-83
2023/07/22 01:39:35;;;;;;;3.90;3.60;;;;;;;17.21;100.00;99128.81;5052704;28;20025;-83
2023/07/22 01:42:01;;;;;;;3.28;3.08;;;;;;;17.04;100.00;99105.66;5052380;28;20029;-82
2023/07/22 01:44:26;;;;;;;4.55;3.42;;;;;;;17.13;100.00;99121.53;5052480;28;20025;-83
2023/07/22 01:46:51;;;;;;;3.95;3.35;;;;;;;16.99;100.00;99103.41;5052187;28;20029;-83
2023/07/22 01:49:17;;;;;;;4.40;4.00;;;;;;;17.06;100.00;99122.16;5052719;28;20365;-83
2023/07/22 01:51:42;;;;;;;3.65;3.35;;;;;;;16.86;100.00;99105.38;5052585;28;20362;-83
2023/07/22 01:54:09;;;;;;;4.25;3.85;;;;;;;16.83;100.00;99110.88;5052221;28;20116;-83
2023/07/22 01:56:35;;;;;;;3.95;3.55;;;;;;;16.68;100.00;99097.97;5052236;28;20083;-82
2023/07/22 01:59:00;;;;;;;4.20;3.85;;;;;;;16.81;100.00;99129.44;5052133;28;20021;-83
2023/07/22 02:01:26;;;;;;;4.97;4.28;;;;;;;16.64;100.00;99109.72;5052212;28;20025;-83
2023/07/22 02:03:51;;;;;;;4.63;4.22;;;;;;;16.74;100.00;99138.75;5052178;28;20033;-83
2023/07/22 02:06:17;;;;;;;5.05;4.55;;;;;;;16.64;100.00;99128.13;5052272;28;20472;-83
2023/07/22 02:08:42;;;;;;;6.05;5.03;;;;;;;16.53;100.00;99114.16;5052089;28;20025;-83
2023/07/22 02:11:08;;;;;;;4.53;4.13;;;;;;;16.61;100.00;99136.25;5051825;28;20060;-83
2023/07/22 02:13:35;;;;;;;5.30;4.80;;;;;;;16.47;100.00;99115.47;5034147;28;20036;-83
2023/07/22 02:16:00;;;;;;;5.40;4.90;;;;;;;16.56;100.00;99135.78;5051530;28;20154;-83
2023/07/22 02:18:27;;;;;;;6.43;5.47;;;;;;;16.38;100.00;99108.31;5052163;28;20492;-83
2023/07/22 02:20:52;;;;;;;5.32;4.82;;;;;;;16.47;100.00;99141.75;5051894;28;20061;-83
2023/07/22 02:23:18;;;;;;;4.70;4.30;;;;;;;16.45;100.00;99127.91;5052065;28;20114;-83
2023/07/22 02:25:43;;;;;;;5.88;5.00;;;;;;;16.61;100.00;99148.56;5051996;28;20028;-83
2023/07/22 02:28:09;;;;;;;5.30;4.80;;;;;;;16.32;100.00;99107.00;5051619;28;20020;-83
2023/07/22 02:30:35;;;;;;;7.57;5.45;;;;;;;16.52;100.00;99139.63;5052072;28;20032;-83
2023/07/22 02:33:02;;;;;;;6.45;5.55;;;;;;;16.50;100.00;99136.25;5051820;28;20055;-83
2023/07/22 02:35:27;;;;;;;4.78;4.38;;;;;;;16.34;100.00;99125.28;5051668;28;20465;-83
2023/07/22 02:37:53;;;;;;;5.25;4.75;;;;;;;16.44;100.00;99144.63;5051543;28;20025;-83
2023/07/22 02:40:18;;;;;;;5.18;4.60;;;;;;;16.49;100.00;99139.84;5051750;28;20491;-83
2023/07/22 02:42:43;;;;;;;7.03;4.95;;;;;;;16.43;100.00;99145.56;5051793;28;20028;-83
2023/07/22 02:45:09;;;;;;;5.25;4.85;;;;;;;16.57;100.00;99160.28;5051533;28;20056;-83
2023/07/22 02:47:35;;;;;;;5.20;4.75;;;;;;;16.66;100.00;99170.06;5051606;28;20049;-83
2023/07/22 02:50:01;;;;;;;5.07;4.60;;;;;;;16.47;100.00;99141.75;5051606;28;20032;-83
2023/07/22 02:52:26;;;;;;;6.10;5.50;;;;;;;16.49;100.00;99149.53;5051668;28;20033;-83
2023/07/22 02:55:13;;;;;;;5.15;4.65;;;;;;;16.42;100.00;99130.75;5051337;28;20436;-83
2023/07/22 02:57:39;;;;;;;5.00;4.50;;;;;;;16.59;100.00;99137.31;5051738;28;20025;-83
2023/07/22 03:00:11;;;;;;;5.07;4.47;;;;;;;16.77;100.00;99170.09;5033695;28;20032;-83
2023/07/22 03:02:37;;;;;;;6.47;4.78;;;;;;;16.80;100.00;99176.88;5051658;28;20044;-83
2023/07/22 03:05:07;;;;;;;5.00;4.47;;;;;;;16.77;100.00;99164.81;5033579;28;20033;-83
2023/07/22 03:07:32;;;;;;;4.65;3.67;;;;;;;16.74;100.00;99169.50;5051520;28;20137;-83
2023/07/22 03:09:59;;;;;;;7.20;4.53;;;;;;;16.61;100.00;99153.81;5051237;28;20109;-83
2023/07/22 03:12:24;;;;;;;5.05;4.50;;;;;;;16.73;100.00;99178.31;5051467;28;20025;-83
2023/07/22 03:14:49;;;;;;;4.60;4.20;;;;;;;16.46;100.00;99148.78;5051347;28;20491;-83
2023/07/22 03:17:16;;;;;;;5.13;4.70;;;;;;;16.54;100.00;99161.34;5033415;28;20581;-83
2023/07/22 03:19:42;;;;;;;4.88;4.47;;;;;;;16.59;100.00;99179.38;5051303;28;20027;-83
2023/07/22 03:22:07;;;;;;;5.10;4.43;;;;;;;16.59;100.00;99174.97;5051051;28;20540;-83
2023/07/22 03:24:33;;;;;;;6.30;4.93;;;;;;;16.59;100.00;99182.00;5051389;28;20040;-83
2023/07/22 03:26:58;;;;;;;4.85;4.45;;;;;;;16.62;100.00;99197.56;5050983;28;20376;-83
2023/07/22 03:29:24;;;;;;;5.40;4.90;;;;;;;16.64;100.00;99204.38;5051304;28;20493;-83
2023/07/22 03:31:49;;;;;;;5.40;4.78;;;;;;;16.42;100.00;99162.31;5051212;28;20104;-83
2023/07/22 03:34:15;;;;;;;6.18;5.00;;;;;;;16.63;100.00;99205.31;5051248;28;20029;-83
2023/07/22 03:36:40;;;;;;;5.68;4.93;;;;;;;16.52;100.00;99191.31;5051200;28;20473;-83
2023/07/22 03:39:06;;;;;;;4.50;4.10;;;;;;;16.66;100.00;99220.03;5051015;28;20029;-83
2023/07/22 03:41:31;;;;;;;7.30;5.50;;;;;;;16.59;100.00;99203.88;5051065;28;20029;-83
2023/07/22 03:43:56;;;;;;;4.90;4.40;;;;;;;16.46;100.00;99182.13;5051084;28;20057;-83
2023/07/22 03:46:22;;;;;;;4.53;4.10;;;;;;;16.55;100.00;99194.56;5033368;28;20079;-83
2023/07/22 03:48:47;;;;;;;4.80;4.40;;;;;;;16.66;100.00;99215.59;5053919;28;20025;-83
2023/07/22 03:51:12;;;;;;;5.90;5.32;;;;;;;16.59;100.00;99209.13;5054871;28;20029;-83
2023/07/22 03:53:38;;;;;;;4.80;4.00;;;;;;;16.58;100.00;99210.09;5055047;28;20029;-83
2023/07/22 03:56:03;;;;;;;5.28;4.03;;;;;;;16.61;100.00;99209.88;5054340;28;20021;-83
2023/07/22 03:58:29;;;;;;;4.43;4.03;;;;;;;16.61;100.00;99204.59;5054978;28;20104;-83
2023/07/22 04:00:54;;;;;;;4.68;4.10;;;;;;;16.73;100.00;99218.63;5054388;28;20025;-83
2023/07/22 04:03:19;;;;;;;5.97;4.95;;;;;;;16.76;100.00;99213.09;5036693;28;20082;-83
2023/07/22 04:05:53;;;;;;;4.78;4.30;;;;;;;16.75;100.00;99203.53;5054545;28;20083;-83
2023/07/22 04:08:18;;;;;;;6.88;4.63;;;;;;;16.80;100.00;99206.63;5054365;28;20052;-83
2023/07/22 04:10:54;;;;;;;5.38;4.57;;;;;;;16.86;100.00;99202.69;5054521;28;20022;-83
2023/07/22 04:13:19;;;;;;;5.68;4.53;;;;;;;16.99;100.00;99202.56;5054312;28;20108;-83
2023/07/22 04:15:46;;;;;;;4.70;4.28;;;;;;;17.64;100.00;99194.53;5054105;28;20563;-83
2023/07/22 04:18:11;;;;;;;6.88;4.07;;;;;;;18.99;97.84;99195.34;5053870;28;20037;-83
2023/07/22 04:20:37;;;;;;;5.32;4.45;;;;;;;20.09;91.99;99207.31;5054135;28;20108;-83
2023/07/22 04:23:02;;;;;;;5.90;4.25;;;;;;;20.50;89.64;99210.56;5053765;28;20158;-83
2023/07/22 04:25:27;;;;;;;4.28;3.90;;;;;;;20.42;88.97;99210.41;5054287;28;20029;-83
2023/07/22 04:27:53;;;;;;;5.00;3.85;;;;;;;20.28;89.49;99218.84;5053985;28;20539;-84
2023/07/22 04:30:20;;;;;;;4.43;4.03;;;;;;;20.09;90.03;99206.47;5054057;28;20029;-84
2023/07/22 04:32:49;;;;;;;4.85;3.58;;;;;;;20.01;89.84;99204.53;5054030;28;20029;-84
2023/07/22 04:35:17;;;;;;;4.05;3.60;;;;;;;20.48;88.93;99217.81;5053602;28;20029;-84
2023/07/22 04:37:42;;;;;;;4.30;3.90;;;;;;;21.12;85.96;99218.75;5053786;28;20021;-84
2023/07/22 04:40:11;;;;;;;4.28;3.88;;;;;;;22.24;81.64;99221.72;5035706;28;20051;-84
2023/07/22 04:42:37;;;;;;;4.10;3.70;;;;;;;23.42;78.04;99238.66;5053903;28;20053;-84
2023/07/22 04:45:03;;;;;;;4.07;3.38;;;;;;;23.77;74.92;99205.66;5053668;28;20067;-84
2023/07/22 04:47:28;;;;;;;5.70;3.80;;;;;;;23.88;74.70;99237.22;5053812;28;20441;-84
2023/07/22 04:49:54;;;;;;;4.22;3.47;;;;;;;23.26;75.46;99218.22;5053563;28;20112;-84
2023/07/22 04:52:19;;;;;;;7.78;3.65;;;;;;;22.76;77.23;99227.00;5053451;28;20059;-84
2023/07/22 04:54:47;;;;;;;4.43;3.20;;;;;;;22.52;78.54;99248.09;5053992;28;20063;-85
2023/07/22 04:57:12;;;;;;;3.22;2.95;;;;;;;22.35;79.24;99240.03;5053252;28;20108;-85
2023/07/22 04:59:38;;;;;;;4.18;3.75;;;;;;;22.46;77.95;99217.72;5053356;28;20112;-85
2023/07/22 05:02:04;;;;;;;5.45;3.70;;;;;;;23.36;75.78;99249.94;5053369;28;20029;-85
2023/07/22 05:04:29;;;;;;;4.25;3.13;;;;;;;24.30;72.73;99220.19;5053358;28;20032;-85
2023/07/22 05:06:54;;;;;;;3.85;2.88;;;;;;;25.34;69.03;99232.47;5035320;28;20136;-85
2023/07/22 05:09:20;;;;;;;6.40;3.30;;;;;;;25.83;68.22;99256.16;5035521;28;20086;-85
2023/07/22 05:11:46;;;;;;;4.43;3.30;;;;;;;25.36;68.41;99254.44;5053679;28;20032;-85
2023/07/22 05:14:11;;;;;;;3.15;2.85;;;;;;;24.88;70.05;99260.81;5052952;28;20025;-85
2023/07/22 05:16:36;;;;;;;4.55;3.15;;;;;;;24.26;70.72;99242.00;5034840;28;20055;-85
2023/07/22 05:19:02;;;;;;;4.05;3.33;;;;;;;23.90;71.48;99253.03;5052781;28;20025;-84
2023/07/22 05:21:27;;;;;;;4.72;2.78;;;;;;;23.94;71.89;99259.69;5052897;28;20032;-85
2023/07/22 05:23:52;;;;;;;3.65;3.33;;;;;;;24.36;70.58;99243.50;5053085;28;20477;-85
2023/07/22 05:26:17;;;;;;;3.72;3.35;;;;;;;25.12;68.42;99263.41;5034972;28;20055;-85
2023/07/22 05:28:43;;;;;;;5.30;3.50;;;;;;;25.59;66.21;99238.47;5053046;28;20607;-86
2023/07/22 05:31:08;;;;;;;5.43;3.13;;;;;;;25.78;66.56;99269.19;5052657;28;20071;-86
2023/07/22 05:33:34;;;;;;;3.25;2.95;;;;;;;25.46;67.28;99282.72;5053089;28;20547;-85
2023/07/22 05:35:59;;;;;;;4.45;3.65;;;;;;;24.75;68.08;99245.41;5052263;28;20029;-85
2023/07/22 05:38:24;;;;;;;7.63;4.40;;;;;;;24.53;69.38;99262.94;5052849;28;20032;-85
2023/07/22 05:40:52;;;;;;;3.90;3.35;;;;;;;24.29;70.87;99268.28;5052711;28;20085;-85
2023/07/22 05:43:17;;;;;;;6.97;3.65;;;;;;;24.20;71.09;99262.13;5052369;28;20032;-85
2023/07/22 05:45:43;;;;;;;6.28;3.70;;;;;;;24.28;70.09;99282.59;5052516;28;20033;-85
2023/07/22 05:48:08;;;;;;;5.30;3.80;;;;;;;24.46;70.17;99290.41;5052229;28;20021;-85
2023/07/22 05:50:34;;;;;;;3.88;3.00;;;;;;;24.20;70.26;99259.47;5052330;28;20078;-84
2023/07/22 05:52:59;;;;;;;3.85;2.85;;;;;;;24.17;70.51;99275.78;5052390;28;20028;-85
2023/07/22 05:55:24;;;;;;;4.05;2.88;;;;;;;24.11;70.75;99297.75;5052278;28;20090;-85
2023/07/22 05:57:50;;;;;;;5.18;3.13;;;;;;;23.82;71.45;99279.63;5052408;28;20029;-84
2023/07/22 06:00:15;;;;;;;4.05;3.28;;;;;;;23.55;71.88;99256.78;5052118;28;20032;-84
2023/07/22 06:02:41;;;;;;;4.80;3.15;;;;;;;23.70;71.60;99281.75;5045506;28;20615;-85
2023/07/22 06:05:07;;;;;;;4.65;3.13;;;;;;;23.59;71.79;99256.28;5031731;28;20585;-86
2023/07/22 06:07:33;;;;;;;5.90;3.28;;;;;;;23.75;71.62;99284.75;5032427;28;20029;-85
2023/07/22 06:09:58;;;;;;;3.25;2.88;;;;;;;23.73;71.02;99277.94;5032059;28;20082;-85
2023/07/22 06:12:23;;;;;;;6.70;4.60;;;;;;;23.71;71.06;99264.81;5031910;28;20465;-85
2023/07/22 06:14:49;;;;;;;7.07;3.35;;;;;;;23.88;70.61;99306.38;5032341;28;20032;-85
2023/07/22 06:17:15;;;;;;;6.53;3.50;;;;;;;23.77;70.65;99281.94;5045551;28;20689;-85
2023/07/22 06:19:40;;;;;;;13.85;3.35;;;;;;;23.69;70.30;99292.56;5051849;28;20106;-84
2023/07/22 06:22:06;;;;;;;4.28;3.83;;;;;;;23.62;70.91;99301.16;5051872;28;20090;-85
2023/07/22 06:24:31;;;;;;;24.42;5.57;;;;;;;23.61;70.95;99293.34;5052270;28;20017;-85
2023/07/22 06:26:56;;;;;;;24.00;5.75;;;;;;;23.84;70.10;99301.53;5052398;28;20472;-85
2023/07/22 06:29:21;;;;;;;5.97;3.10;;;;;;;23.96;69.36;99318.84;5051742;28;20021;-85
2023/07/22 06:31:47;;;;;;;3.80;3.40;;;;;;;24.10;69.17;99310.22;5051942;28;20029;-85
2023/07/22 06:34:13;;;;;;;7.88;3.38;;;;;;;24.02;68.83;99296.06;5051525;28;20033;-85
2023/07/22 06:36:38;;;;;;;3.55;3.00;;;;;;;23.99;69.32;99310.53;5051953;28;20431;-83
2023/07/22 06:39:03;;;;;;;8.57;4.07;;;;;;;23.77;69.53;99304.03;5051621;28;20021;-83
2023/07/22 06:41:29;;;;;;;7.28;3.65;;;;;;;23.65;69.65;99326.63;5052280;28;20108;-83
2023/07/22 06:43:55;;;;;;;8.07;3.72;;;;;;;23.28;71.09;99306.56;5051924;28;20025;-83
2023/07/22 06:46:21;;;;;;;24.58;5.20;;;;;;;23.28;71.76;99329.63;5051495;28;20082;-83
2023/07/22 06:48:47;;;;;;;11.43;4.20;;;;;;;23.08;71.71;99331.72;5051610;28;20117;-83
2023/07/22 06:51:12;;;;;;;9.63;3.33;;;;;;;22.82;71.62;99329.91;5051469;28;20112;-83
2023/07/22 06:53:38;;;;;;;4.97;3.42;;;;;;;22.58;72.61;99337.69;5051821;28;20107;-83
2023/07/22 06:56:03;;;;;;;4.55;2.92;;;;;;;22.33;73.15;99337.56;5051549;28;20032;-83
2023/07/22 06:58:29;;;;;;;7.13;3.13;;;;;;;22.06;74.24;99313.75;5051711;28;20032;-83
2023/07/22 07:00:55;;;;;;;2.90;2.67;;;;;;;22.38;74.72;99345.88;5051644;28;20055;-84
2023/07/22 07:03:21;;;;;;;7.57;2.72;;;;;;;22.63;73.41;99343.41;5051311;28;20103;-83
2023/07/22 07:05:56;;;;;;;5.30;3.90;;;;;;;23.02;72.76;99354.44;5033797;28;20121;-84
2023/07/22 07:08:23;;;;;;;3.42;3.13;;;;;;;24.02;70.20;99349.25;5051221;28;20052;-84
2023/07/22 07:10:49;;;;;;;3.88;3.20;;;;;;;25.08;66.24;99342.03;5051661;28;20116;-84
2023/07/22 07:13:14;;;;;;;5.22;2.80;;;;;;;25.70;63.73;99343.06;5051318;28;20048;-84
2023/07/22 07:15:39;;;;;;;5.57;2.75;;;;;;;26.47;61.49;99337.72;5051268;28;20068;-84
2023/07/22 07:18:05;;;;;;;3.08;2.78;;;;;;;26.76;60.75;99342.28;5051116;28;20113;-84
2023/07/22 07:20:30;;;;;;;3.60;2.50;;;;;;;27.84;59.66;99345.09;5051671;28;20040;-84
2023/07/22 07:22:55;;;;;;;3.88;2.15;;;;;;;29.82;56.56;99357.38;5053347;28;20036;-84
2023/07/22 07:25:21;;;;;;;2.50;2.30;;;;;;;31.54;52.70;99345.66;5055139;28;20111;-84
2023/07/22 07:27:47;;;;;;;3.83;2.70;;;;;;;32.96;50.11;99348.75;5055193;28;20121;-84
2023/07/22 07:30:12;;;;;;;3.28;2.50;;;;;;;33.94;47.90;99353.94;5054817;28;20029;-84
2023/07/22 07:32:37;;;;;;;2.65;2.33;;;;;;;34.94;46.65;99338.78;5054936;28;20081;-84
2023/07/22 07:35:04;;;;;;;3.28;2.40;;;;;;;34.91;45.45;99341.97;5055393;28;20041;-84
2023/07/22 07:37:29;;;;;;;3.60;2.65;;;;;;;33.76;46.66;99354.03;5054987;28;20053;-84
2023/07/22 07:39:59;;;;;;;2.55;2.35;;;;;;;33.65;47.44;99373.69;5053934;28;20059;-84
2023/07/22 07:42:24;;;;;;;6.95;2.70;;;;;;;32.85;47.71;99379.13;5054484;28;20039;-84
2023/07/22 07:44:50;;;;;;;2.88;2.20;;;;;;;31.25;49.14;99380.09;5054395;28;20029;-85
2023/07/22 07:47:15;;;;;;;4.35;2.50;;;;;;;30.72;51.25;99366.78;5054416;28;20078;-84
2023/07/22 07:49:40;;;;;;;3.13;2.28;;;;;;;31.52;49.96;99370.09;5054563;28;20438;-84
2023/07/22 07:52:06;;;;;;;4.28;2.63;;;;;;;31.26;49.68;99367.47;5054195;28;20440;-84
2023/07/22 07:54:31;;;;;;;3.58;2.72;;;;;;;31.79;49.79;99392.31;5054674;28;20028;-84
2023/07/22 07:56:56;;;;;;;3.45;2.63;;;;;;;32.86;48.34;99397.78;5054151;28;20435;-81
2023/07/22 07:59:22;;;;;;;4.72;2.30;;;;;;;33.40;47.19;99392.66;5054351;28;20341;-81
2023/07/22 08:01:47;;;;;;;4.90;2.80;;;;;;;33.95;47.30;99401.53;5054389;28;20044;-81
2023/07/22 08:04:12;;;;;;;2.50;2.30;;;;;;;34.10;46.72;99368.72;5054736;28;20096;-81
2023/07/22 08:06:38;;;;;;;2.33;2.17;;;;;;;34.45;45.82;99382.28;5054546;28;20167;-81
2023/07/22 08:09:05;;;;;;;2.47;2.28;;;;;;;34.86;45.50;99395.97;5054797;28;20465;-81
2023/07/22 08:11:30;;;;;;;3.13;2.50;;;;;;;33.83;46.02;99402.53;5054341;28;20439;-81
2023/07/22 08:13:56;;;;;;;3.00;2.05;;;;;;;32.75;46.94;99388.56;5054324;28;20048;-81
2023/07/22 08:16:21;;;;;;;3.40;2.25;;;;;;;31.63;47.79;99408.13;5053865;28;20053;-81
2023/07/22 08:18:47;;;;;;;1.88;1.77;;;;;;;30.90;49.00;99408.34;5054278;28;20105;-81
2023/07/22 08:21:12;;;;;;;2.33;2.10;;;;;;;31.28;48.59;99385.09;5054193;28;20461;-81
2023/07/22 08:23:38;;;;;;;2.67;2.10;;;;;;;32.07;47.19;99401.94;5054257;28;20025;-81
2023/07/22 08:26:08;;;;;;;2.45;2.20;;;;;;;32.41;47.25;99405.25;5054156;28;20465;-81
2023/07/22 08:28:34;;;;;;;2.40;2.15;;;;;;;31.94;47.68;99386.69;5054095;28;20417;-81
2023/07/22 08:31:00;;;;;;;2.92;2.33;;;;;;;31.05;48.15;99388.22;5054091;28;20021;-81
2023/07/22 08:33:26;;;;;;;2.13;2.03;;;;;;;30.33;49.01;99402.50;5053419;28;20024;-81
2023/07/22 08:35:52;;;;;;;3.90;2.70;;;;;;;29.24;49.34;99384.56;5054064;28;20098;-81
2023/07/22 08:38:17;;;;;;;1.90;1.80;;;;;;;28.51;50.87;99388.59;5053818;28;20503;-81
2023/07/22 08:40:43;;;;;;;2.83;2.00;;;;;;;28.04;51.86;99419.44;5053967;28;20056;-81
2023/07/22 08:43:10;;;;;;;2.80;2.00;;;;;;;27.56;53.35;99414.56;5053722;28;20025;-80
2023/07/22 08:45:37;;;;;;;2.00;1.90;;;;;;;27.31;54.29;99416.69;5053669;28;20040;-81
2023/07/22 08:48:07;;;;;;;2.30;2.10;;;;;;;27.10;55.05;99400.56;5053890;28;20025;-80
2023/07/22 08:50:54;;;;;;;2.20;2.10;;;;;;;27.06;55.22;99388.53;5053596;28;20028;-81
2023/07/22 08:53:21;;;;;;;4.03;2.50;;;;;;;27.14;55.92;99414.38;5053231;28;20584;-81
2023/07/22 08:55:47;;;;;;;4.15;2.75;;;;;;;27.13;55.57;99410.88;5053603;28;20063;-80
2023/07/22 08:58:13;;;;;;;3.45;2.58;;;;;;;27.11;54.80;99402.22;5053674;28;20028;-81
2023/07/22 09:00:39;;;;;;;3.55;2.55;;;;;;;26.92;54.90;99378.66;5053856;28;20029;-81
2023/07/22 09:03:06;;;;;;;2.33;2.13;;;;;;;27.00;54.64;99399.94;5053668;28;20350;-80
2023/07/22 09:05:33;;;;;;;2.35;2.10;;;;;;;26.91;55.00;99407.22;5053444;28;20037;-81
2023/07/22 09:08:00;;;;;;;2.67;2.47;;;;;;;26.55;54.71;99401.75;5053418;28;20496;-80
2023/07/22 09:10:27;;;;;;;2.95;2.40;;;;;;;26.12;55.25;99412.88;5052139;28;20411;-80
2023/07/22 09:12:53;;;;;;;4.75;2.40;;;;;;;25.96;56.12;99412.16;5052476;28;20381;-80
2023/07/22 09:15:20;;;;;;;3.28;2.65;;;;;;;25.77;55.93;99414.25;5051707;28;20032;-80
2023/07/22 09:17:46;;;;;;;3.55;2.35;;;;;;;25.52;56.96;99396.69;5034853;28;20045;-81
2023/07/22 09:20:15;;;;;;;2.85;2.38;;;;;;;25.38;56.83;99372.41;5052809;28;20029;-80
2023/07/22 09:22:44;;;;;;;3.33;2.55;;;;;;;25.32;57.32;99361.59;5053032;28;20040;-80
2023/07/22 09:25:26;;;;;;;2.60;2.40;;;;;;;25.47;57.59;99420.38;5052849;28;20063;-80
2023/07/22 09:27:54;;;;;;;3.80;2.40;;;;;;;25.53;57.87;99415.16;5053108;28;20028;-80
2023/07/22 09:30:40;;;;;;;2.53;2.33;;;;;;;25.58;57.51;99393.31;5052769;28;20025;-80
2023/07/22 09:33:19;;;;;;;2.70;2.50;;;;;;;25.64;56.42;99392.63;5052928;28;20039;-80
2023/07/22 09:35:49;;;;;;;3.45;2.45;;;;;;;25.64;57.19;99419.28;5052946;28;20104;-80
2023/07/22 09:38:21;;;;;;;2.33;2.13;;;;;;;25.62;56.61;99403.47;5052665;28;20028;-80
2023/07/22 09:40:47;;;;;;;3.03;2.60;;;;;;;25.68;56.46;99391.25;5053056;28;20032;-81
2023/07/22 09:43:12;;;;;;;3.58;2.55;;;;;;;25.75;56.31;99394.06;5053085;28;20021;-81
2023/07/22 09:45:38;;;;;;;2.60;2.40;;;;;;;25.67;56.07;99391.44;5051479;28;20052;-81
2023/07/22 09:48:03;;;;;;;3.55;2.42;;;;;;;25.75;57.04;99424.25;5052290;28;20035;-80
2023/07/22 09:50:29;;;;;;;2.78;2.53;;;;;;;25.69;56.47;99400.91;5052469;28;20057;-82
2023/07/22 09:52:58;;;;;;;2.63;2.42;;;;;;;25.85;56.46;99418.72;5052451;28;20087;-81
2023/07/22 09:55:31;;;;;;;3.28;2.70;;;;;;;25.82;56.74;99421.72;5052297;28;20033;-81
2023/07/22 09:58:02;;;;;;;2.83;2.63;;;;;;;25.61;55.86;99404.44;5052333;28;20124;-81
2023/07/22 10:00:34;;;;;;;4.38;3.00;;;;;;;25.55;55.34;99415.84;5052027;28;20484;-81
2023/07/22 10:03:01;;;;;;;2.90;2.30;;;;;;;25.48;56.11;99422.03;5034432;28;20037;-80
2023/07/22 10:05:29;;;;;;;3.13;2.70;;;;;;;25.23;56.16;99406.09;5052082;28;20028;-80
2023/07/22 10:07:58;;;;;;;3.97;2.60;;;;;;;25.17;56.04;99390.00;5051414;28;20103;-80
2023/07/22 10:10:30;;;;;;;3.95;3.00;;;;;;;25.13;55.77;99398.31;5051784;28;20048;-79
2023/07/22 10:12:57;;;;;;;2.97;2.67;;;;;;;24.94;56.09;99390.66;5051606;28;20112;-79
2023/07/22 10:15:26;;;;;;;3.10;2.80;;;;;;;25.13;56.30;99411.66;5051492;28;21105;-79
2023/07/22 10:17:53;;;;;;;3.17;2.80;;;;;;;25.07;55.73;99406.97;5051925;28;20057;-79
2023/07/22 10:20:19;;;;;;;3.80;2.53;;;;;;;25.05;55.47;99392.97;5051658;28;20021;-79
2023/07/22 10:22:46;;;;;;;4.22;3.20;;;;;;;24.99;55.95;99404.34;5051807;28;20028;-79
2023/07/22 10:25:14;;;;;;;3.45;2.80;;;;;;;25.07;55.50;99436.28;5051433;28;20112;-79
2023/07/22 10:27:41;;;;;;;4.50;3.50;;;;;;;24.80;56.41;99410.00;5051256;28;20032;-78
2023/07/22 10:30:11;;;;;;;3.58;2.90;;;;;;;24.88;56.51;99424.16;5051860;28;20059;-79
2023/07/22 10:32:47;;;;;;;4.55;2.95;;;;;;;24.77;56.29;99403.19;5051803;28;20037;-79
2023/07/22 10:35:21;;;;;;;3.53;3.22;;;;;;;24.94;55.16;99413.81;5051497;28;20055;-79
2023/07/22 10:37:46;;;;;;;3.00;2.80;;;;;;;24.83;54.94;99391.88;5051449;28;20029;-80
2023/07/22 10:40:24;;;;;;;4.05;3.25;;;;;;;24.93;54.26;99407.66;5051439;28;20021;-80
2023/07/22 10:43:06;;;;;;;4.90;3.28;;;;;;;25.07;53.46;99420.31;5051511;28;20021;-82
2023/07/22 10:45:33;;;;;;;4.03;3.30;;;;;;;25.10;52.59;99435.97;5051647;28;20079;-81
2023/07/22 10:48:10;;;;;;;3.05;2.75;;;;;;;25.14;52.96;99423.97;5051470;28;20029;-80
2023/07/22 10:50:42;;;;;;;3.55;2.80;;;;;;;25.04;53.06;99398.50;5050989;28;20544;-80
2023/07/22 10:53:31;;;;;;;3.10;2.80;;;;;;;25.31;52.52;99431.91;5051245;28;20075;-80
2023/07/22 10:56:16;;;;;;;4.70;3.40;;;;;;;25.34;52.06;99434.25;5009511;28;20494;-80
2023/07/22 10:58:44;;;;;;;2.88;2.53;;;;;;;25.38;53.21;99438.22;5013071;28;20040;-80
2023/07/22 11:01:28;;;;;;;3.83;2.72;;;;;;;25.37;52.61;99437.41;5012737;28;20088;-80
2023/07/22 11:04:05;;;;;;;3.88;3.25;;;;;;;25.35;52.17;99439.41;5013587;28;20037;-80
2023/07/22 11:06:31;;;;;;;3.67;3.10;;;;;;;25.32;51.76;99437.06;5012996;28;20516;-81
2023/07/22 11:08:56;;;;;;;3.67;3.28;;;;;;;25.40;52.71;99433.53;5012986;28;20038;-81
2023/07/22 11:11:35;;;;;;;3.25;2.95;;;;;;;25.45;51.81;99423.22;5012796;28;20025;-81
2023/07/22 11:14:17;;;;;;;3.60;2.90;;;;;;;25.42;51.47;99412.06;5013158;28;20046;-81
2023/07/22 11:16:45;;;;;;;4.70;2.78;;;;;;;25.56;51.03;99419.31;5011566;28;20521;-81
2023/07/22 11:19:12;;;;;;;5.40;2.92;;;;;;;25.37;50.64;99391.25;5013010;28;20501;-81
2023/07/22 11:21:38;;;;;;;6.65;3.05;;;;;;;25.54;51.19;99419.50;5012649;28;20430;-81
2023/07/22 11:24:05;;;;;;;3.42;2.70;;;;;;;25.49;51.42;99413.84;5013347;28;20070;-81
2023/07/22 11:26:31;;;;;;;4.57;3.10;;;;;;;25.68;51.13;99420.59;5012962;28;20046;-85
2023/07/22 11:28:57;;;;;;;3.97;2.67;;;;;;;25.80;51.22;99405.91;5013491;28;20028;-86